Time;durP1;ratioP1;P1;durP2;ratioP2;P2;SDS_P1;SDS_P2;PMS_P1;PMS_P2;Temp;Humidity;BMP_temperature;BMP_pressure;BME280_temperature;BME280_humidity;BME280_pressure;Samples;Min_cycle;Max_cycle;Signal;HPM_P1;HPM_P2
2021/12/05 00:23:46;;;;;;;;;;;11.20;63.90;;;;;;6220188;23;19955;-89
2021/12/05 00:26:17;;;;;;;;;;;11.20;63.80;;;;;;6193845;23;19912;-88
2021/12/05 00:29:07;;;;;;;;;;;11.30;63.90;;;;;;6220762;23;19930;-89
2021/12/05 00:39:34;;;;;;;;;;;11.30;63.60;;;;;;6220912;23;19919;-87
2021/12/05 01:08:35;;;;;;;;;;;11.30;63.40;;;;;;6134662;23;20314;-89
2021/12/05 01:11:10;;;;;;;;;;;11.30;63.50;;;;;;6192121;23;19908;-88
2021/12/05 01:13:46;;;;;;;;;;;11.40;63.40;;;;;;6194514;23;19940;-87
2021/12/05 01:16:14;;;;;;;;;;;11.40;63.40;;;;;;6193302;23;20361;-87
2021/12/05 01:18:40;;;;;;;;;;;11.40;63.40;;;;;;6221213;23;19915;-88
2021/12/05 01:21:09;;;;;;;;;;;11.40;63.40;;;;;;6220430;23;19904;-88
2021/12/05 01:26:08;;;;;;;;;;;11.40;63.30;;;;;;6222325;23;19904;-89
2021/12/05 01:39:01;;;;;;;;;;;11.40;63.30;;;;;;6222472;23;20268;-89
2021/12/05 01:44:39;;;;;;;;;;;11.40;63.30;;;;;;6220937;23;20363;-89
2021/12/05 01:55:19;;;;;;;;;;;11.40;63.30;;;;;;6231228;23;19904;-88
2021/12/05 02:07:51;;;;;;;;;;;11.30;63.20;;;;;;6220532;23;19919;-89
2021/12/05 02:09:05;;;;;;;;;;;11.20;63.20;;;;;;6220847;23;19923;-89
2021/12/05 02:41:19;;;;;;;;;;;10.90;63.40;;;;;;6224975;23;19959;-88
2021/12/05 02:43:49;;;;;;;;;;;10.80;63.50;;;;;;6192947;23;19908;-87
2021/12/05 02:46:16;;;;;;;;;;;10.80;63.40;;;;;;6193064;23;19912;-88
2021/12/05 02:48:42;;;;;;;;;;;10.80;63.50;;;;;;6219333;23;19939;-87
2021/12/05 02:51:19;;;;;;;;;;;10.80;63.40;;;;;;6193448;23;19923;-88
2021/12/05 02:53:49;;;;;;;;;;;10.80;63.50;;;;;;6192759;23;19911;-87
2021/12/05 02:56:15;;;;;;;;;;;10.80;63.50;;;;;;6193486;23;19912;-88
2021/12/05 02:58:54;;;;;;;;;;;10.80;63.30;;;;;;6219412;23;19904;-88
2021/12/05 03:01:42;;;;;;;;;;;10.80;63.30;;;;;;6193434;23;19991;-88
2021/12/05 03:04:09;;;;;;;;;;;10.80;63.40;;;;;;6220542;23;19904;-89
2021/12/05 03:06:35;;;;;;;;;;;10.80;63.50;;;;;;6193325;23;19934;-88
2021/12/05 03:09:04;;;;;;;;;;;10.80;63.40;;;;;;6192907;23;19904;-89
2021/12/05 03:11:30;;;;;;;;;;;10.80;63.50;;;;;;6220337;23;20288;-89
2021/12/05 03:13:56;;;;;;;;;;;10.80;63.40;;;;;;6193252;23;19904;-89
2021/12/05 03:16:22;;;;;;;;;;;10.80;63.30;;;;;;6192743;23;20394;-89
2021/12/05 03:18:48;;;;;;;;;;;10.80;63.30;;;;;;6219087;23;19904;-89
2021/12/05 03:21:14;;;;;;;;;;;10.80;63.30;;;;;;6192253;23;19983;-88
2021/12/05 03:23:41;;;;;;;;;;;10.70;63.20;;;;;;6191463;23;20333;-87
2021/12/05 03:26:10;;;;;;;;;;;10.80;63.20;;;;;;6192269;23;19919;-87
2021/12/05 03:28:36;;;;;;;;;;;10.70;63.10;;;;;;6191310;23;19911;-88
2021/12/05 03:31:02;;;;;;;;;;;10.70;63.20;;;;;;6192615;23;19916;-88
2021/12/05 03:33:28;;;;;;;;;;;10.70;63.20;;;;;;6218915;23;20320;-89
2021/12/05 03:35:57;;;;;;;;;;;10.70;63.20;;;;;;6219245;23;19953;-89
2021/12/05 03:38:22;;;;;;;;;;;10.70;63.20;;;;;;6193058;23;19927;-89
2021/12/05 03:40:48;;;;;;;;;;;10.70;63.20;;;;;;6192552;23;19919;-89
2021/12/05 03:43:15;;;;;;;;;;;10.70;63.30;;;;;;6192663;23;20348;-89
2021/12/05 03:45:42;;;;;;;;;;;10.70;63.20;;;;;;6193171;23;19916;-88
2021/12/05 03:48:08;;;;;;;;;;;10.70;63.30;;;;;;6192845;23;19931;-89
2021/12/05 03:50:33;;;;;;;;;;;10.70;63.20;;;;;;6218201;23;20228;-88
2021/12/05 03:52:59;;;;;;;;;;;10.70;63.30;;;;;;6191777;23;19986;-88
2021/12/05 03:55:24;;;;;;;;;;;10.70;63.20;;;;;;6192689;23;19911;-87
2021/12/05 03:57:50;;;;;;;;;;;10.70;63.30;;;;;;6192336;23;19915;-87
2021/12/05 04:00:19;;;;;;;;;;;10.60;63.30;;;;;;6218852;23;19904;-88
2021/12/05 04:02:46;;;;;;;;;;;10.60;63.30;;;;;;6218698;23;19904;-88
2021/12/05 04:05:11;;;;;;;;;;;10.60;63.30;;;;;;6192419;23;19908;-88
2021/12/05 04:07:37;;;;;;;;;;;10.60;63.30;;;;;;6192190;23;19910;-88
2021/12/05 04:10:03;;;;;;;;;;;10.70;63.20;;;;;;6219372;23;19982;-89
2021/12/05 04:12:29;;;;;;;;;;;10.60;63.20;;;;;;6218749;23;19912;-89
2021/12/05 04:14:55;;;;;;;;;;;10.60;63.00;;;;;;6219520;23;19911;-88
2021/12/05 04:17:20;;;;;;;;;;;10.50;63.10;;;;;;6194107;23;19946;-88
2021/12/05 04:19:46;;;;;;;;;;;10.50;63.00;;;;;;6221098;23;19908;-87
2021/12/05 04:22:12;;;;;;;;;;;10.40;63.00;;;;;;6193316;23;19915;-88
2021/12/05 04:24:37;;;;;;;;;;;10.50;63.10;;;;;;6219488;23;19908;-88
2021/12/05 04:27:04;;;;;;;;;;;10.40;63.00;;;;;;6219612;23;19916;-88
2021/12/05 04:29:32;;;;;;;;;;;10.40;63.10;;;;;;6219013;23;19955;-88
2021/12/05 04:31:58;;;;;;;;;;;10.40;63.00;;;;;;6192807;23;19919;-89
2021/12/05 04:34:23;;;;;;;;;;;10.40;63.10;;;;;;6191730;23;19916;-88
2021/12/05 04:36:55;;;;;;;;;;;10.40;63.10;;;;;;6192012;23;19916;-88
2021/12/05 04:39:21;;;;;;;;;;;10.40;63.10;;;;;;6218208;23;19911;-87
2021/12/05 04:41:46;;;;;;;;;;;10.40;63.20;;;;;;6218345;23;20236;-88
2021/12/05 04:44:12;;;;;;;;;;;10.40;63.00;;;;;;6192456;23;19914;-90
2021/12/05 04:46:38;;;;;;;;;;;10.40;63.10;;;;;;6194245;23;20236;-90
2021/12/05 04:49:06;;;;;;;;;;;10.40;63.10;;;;;;6193080;23;20283;-89
2021/12/05 04:51:34;;;;;;;;;;;10.40;63.10;;;;;;6219423;23;19924;-89
2021/12/05 04:54:01;;;;;;;;;;;10.40;63.00;;;;;;6193786;23;19914;-89
2021/12/05 04:56:26;;;;;;;;;;;10.50;63.20;;;;;;6192706;23;19912;-89
2021/12/05 04:58:53;;;;;;;;;;;10.40;63.20;;;;;;6220660;23;20568;-89
2021/12/05 05:01:19;;;;;;;;;;;10.40;63.20;;;;;;6194069;23;19912;-89
2021/12/05 05:03:45;;;;;;;;;;;10.40;63.00;;;;;;6193766;23;19931;-89
2021/12/05 05:06:16;;;;;;;;;;;10.40;62.90;;;;;;6222556;23;19912;-89
2021/12/05 05:08:43;;;;;;;;;;;10.40;62.80;;;;;;6195894;23;19904;-89
2021/12/05 05:11:10;;;;;;;;;;;10.30;62.70;;;;;;6195699;23;19943;-88
2021/12/05 05:13:36;;;;;;;;;;;10.30;62.50;;;;;;6194867;23;19904;-88
2021/12/05 05:16:06;;;;;;;;;;;10.20;62.50;;;;;;6220410;23;19962;-87
2021/12/05 05:27:27;;;;;;;;;;;10.20;62.60;;;;;;6224180;23;19916;-87
2021/12/05 05:40:36;;;;;;;;;;;9.70;61.80;;;;;;6225931;23;19915;-89
2021/12/05 05:43:30;;;;;;;;;;;9.60;61.50;;;;;;6176345;23;19991;-89
2021/12/05 05:46:09;;;;;;;;;;;9.60;61.40;;;;;;6217305;23;19954;-88
2021/12/05 05:48:50;;;;;;;;;;;9.50;61.80;;;;;;6191831;23;20063;-89
2021/12/05 05:51:16;;;;;;;;;;;9.50;62.30;;;;;;6191499;23;19956;-88
2021/12/05 05:53:43;;;;;;;;;;;9.50;62.30;;;;;;6193416;23;19912;-91
2021/12/05 05:56:13;;;;;;;;;;;9.50;62.50;;;;;;6194894;23;20519;-90
2021/12/05 05:58:56;;;;;;;;;;;9.60;62.50;;;;;;6193317;23;19984;-90
2021/12/05 06:01:41;;;;;;;;;;;9.60;62.70;;;;;;6194110;23;19912;-89
2021/12/05 06:04:06;;;;;;;;;;;9.60;62.60;;;;;;6220057;23;19935;-90
2021/12/05 06:06:32;;;;;;;;;;;9.60;62.50;;;;;;6194020;23;19970;-88
2021/12/05 06:08:59;;;;;;;;;;;9.60;62.40;;;;;;6221014;23;19908;-89
2021/12/05 06:11:25;;;;;;;;;;;9.60;62.60;;;;;;6194481;23;19965;-90
2021/12/05 06:13:51;;;;;;;;;;;9.60;62.60;;;;;;6193771;23;19939;-90
2021/12/05 06:16:16;;;;;;;;;;;9.60;62.40;;;;;;6193841;23;19912;-90
2021/12/05 06:18:43;;;;;;;;;;;9.60;62.50;;;;;;6193619;23;19939;-90
2021/12/05 06:21:09;;;;;;;;;;;9.60;62.40;;;;;;6218665;23;19966;-90
2021/12/05 06:23:35;;;;;;;;;;;9.60;62.60;;;;;;6192599;23;19904;-90
2021/12/05 06:26:01;;;;;;;;;;;9.60;62.60;;;;;;6220341;23;20340;-90
2021/12/05 06:28:37;;;;;;;;;;;9.70;62.80;;;;;;6193610;23;19912;-90
2021/12/05 06:31:26;;;;;;;;;;;9.70;62.70;;;;;;6220199;23;19995;-90
2021/12/05 06:36:57;;;;;;;;;;;9.70;62.90;;;;;;6218791;23;20379;-89
2021/12/05 06:41:59;;;;;;;;;;;9.80;63.10;;;;;;6218851;23;19915;-88
2021/12/05 06:47:11;;;;;;;;;;;9.90;63.20;;;;;;6218026;23;19962;-88
2021/12/05 06:49:37;;;;;;;;;;;9.90;63.10;;;;;;6191658;23;19934;-88
2021/12/05 06:52:04;;;;;;;;;;;10.00;63.30;;;;;;6191398;23;19912;-88
2021/12/05 06:54:30;;;;;;;;;;;10.00;63.20;;;;;;6192624;23;19936;-88
2021/12/05 06:56:55;;;;;;;;;;;10.10;63.00;;;;;;6192713;23;19908;-88
2021/12/05 06:59:21;;;;;;;;;;;10.10;63.00;;;;;;6191514;23;19904;-89
2021/12/05 07:01:48;;;;;;;;;;;10.10;62.90;;;;;;6192454;23;19954;-89
2021/12/05 07:04:38;;;;;;;;;;;10.10;62.90;;;;;;6192738;23;20224;-89
2021/12/05 07:07:01;;;;;;;;;;;10.20;63.20;;;;;;6218609;23;19916;-88
2021/12/05 07:09:27;;;;;;;;;;;10.20;62.80;;;;;;6218473;23;19919;-88
2021/12/05 07:22:34;;;;;;;;;;;10.30;62.90;;;;;;6219630;23;19915;-89
2021/12/05 07:25:08;;;;;;;;;;;10.30;62.90;;;;;;6193546;23;19919;-90
2021/12/05 07:41:21;;;;;;;;;;;10.40;62.90;;;;;;6218146;23;20339;-90
2021/12/05 07:43:46;;;;;;;;;;;10.40;62.80;;;;;;6217951;23;20439;-90
2021/12/05 07:46:12;;;;;;;;;;;10.40;62.70;;;;;;6218853;23;19943;-89
2021/12/05 07:48:41;;;;;;;;;;;10.40;62.70;;;;;;6218092;23;19943;-89
2021/12/05 07:51:25;;;;;;;;;;;10.40;62.60;;;;;;6192401;23;19927;-91
2021/12/05 07:54:27;;;;;;;;;;;10.30;62.40;;;;;;6195187;23;20236;-91
2021/12/05 07:56:59;;;;;;;;;;;10.30;62.40;;;;;;6221800;23;19931;-90
2021/12/05 08:15:46;;;;;;;;;;;10.30;62.80;;;;;;6219252;23;19919;-90
2021/12/05 08:18:11;;;;;;;;;;;10.30;62.90;;;;;;6191397;23;19931;-89
2021/12/05 08:20:39;;;;;;;;;;;10.40;62.80;;;;;;6191783;23;19978;-91
2021/12/05 08:23:06;;;;;;;;;;;10.50;62.70;;;;;;6219115;23;19904;-90
2021/12/05 08:25:33;;;;;;;;;;;10.50;62.60;;;;;;6193201;23;20301;-89
2021/12/05 08:28:54;;;;;;;;;;;10.50;62.50;;;;;;6192133;23;19948;-89
2021/12/05 08:30:57;;;;;;;;;;;10.50;62.60;;;;;;6207711;23;19923;-89
2021/12/05 08:39:57;;;;;;;;;;;10.60;62.70;;;;;;6229406;23;20335;-89
2021/12/05 09:20:54;;;;;;;;;;;11.80;63.10;;;;;;6109071;23;19947;-88
2021/12/05 09:26:25;;;;;;;;;;;12.20;62.90;;;;;;6217018;23;19926;-90
2021/12/05 10:07:46;;;;;;;;;;;12.60;62.50;;;;;;6217370;23;20240;-89
2021/12/05 10:10:29;;;;;;;;;;;12.70;62.70;;;;;;6217396;23;19944;-88
2021/12/05 10:16:09;;;;;;;;;;;12.80;62.70;;;;;;6217571;23;19954;-88
2021/12/05 10:35:28;;;;;;;;;;;13.40;62.50;;;;;;6218188;23;19943;-88
2021/12/05 10:38:04;;;;;;;;;;;13.50;62.40;;;;;;6190390;23;19912;-90
2021/12/05 10:40:37;;;;;;;;;;;13.50;62.40;;;;;;6190719;23;19908;-90
2021/12/05 10:43:09;;;;;;;;;;;13.60;62.60;;;;;;6190375;23;19982;-88
2021/12/05 10:45:38;;;;;;;;;;;13.70;62.30;;;;;;6216053;23;19916;-89
2021/12/05 10:48:06;;;;;;;;;;;13.70;62.00;;;;;;6216338;23;20352;-90
2021/12/05 10:50:45;;;;;;;;;;;13.70;62.20;;;;;;6189693;23;19951;-89
2021/12/05 10:53:22;;;;;;;;;;;13.80;62.00;;;;;;6215940;23;20236;-90
2021/12/05 10:55:56;;;;;;;;;;;13.80;62.20;;;;;;6188529;23;19986;-89
2021/12/05 10:58:23;;;;;;;;;;;13.80;62.40;;;;;;6189081;23;19908;-89
2021/12/05 11:01:02;;;;;;;;;;;13.80;62.00;;;;;;6190302;23;19908;-90
2021/12/05 11:03:29;;;;;;;;;;;13.80;62.10;;;;;;6189911;23;20244;-89
2021/12/05 11:05:54;;;;;;;;;;;13.80;62.40;;;;;;6190121;23;19912;-89
2021/12/05 11:08:34;;;;;;;;;;;13.80;62.30;;;;;;6190189;23;20297;-91
2021/12/05 11:11:11;;;;;;;;;;;13.80;62.50;;;;;;6190427;23;19916;-91
2021/12/05 11:13:37;;;;;;;;;;;13.90;61.80;;;;;;6190230;23;19990;-88
2021/12/05 11:16:04;;;;;;;;;;;13.90;61.50;;;;;;6190149;23;20236;-89
2021/12/05 11:18:43;;;;;;;;;;;13.80;61.60;;;;;;6191420;23;20383;-89
2021/12/05 11:21:31;;;;;;;;;;;14.00;62.00;;;;;;6191248;23;19958;-89
2021/12/05 11:24:11;;;;;;;;;;;14.00;61.40;;;;;;6190528;23;19915;-89
2021/12/05 11:26:38;;;;;;;;;;;14.00;61.70;;;;;;6190930;23;20233;-88
2021/12/05 11:29:04;;;;;;;;;;;14.20;62.30;;;;;;6217164;23;19915;-90
2021/12/05 11:31:30;;;;;;;;;;;14.20;62.40;;;;;;6190592;23;20233;-90
2021/12/05 11:33:57;;;;;;;;;;;14.30;62.10;;;;;;6217336;23;19918;-89
2021/12/05 11:36:25;;;;;;;;;;;14.30;62.00;;;;;;6190491;23;19998;-89
2021/12/05 11:38:51;;;;;;;;;;;14.30;61.60;;;;;;6190621;23;19983;-90
2021/12/05 11:41:20;;;;;;;;;;;14.30;62.00;;;;;;6218234;23;20226;-91
2021/12/05 11:43:56;;;;;;;;;;;14.40;61.60;;;;;;6190287;23;19908;-89
2021/12/05 11:46:28;;;;;;;;;;;14.40;61.70;;;;;;6217693;23;19951;-90
2021/12/05 11:48:55;;;;;;;;;;;14.40;62.00;;;;;;6190137;23;19908;-90
2021/12/05 11:51:21;;;;;;;;;;;14.40;61.40;;;;;;6190336;23;20023;-89
2021/12/05 11:53:48;;;;;;;;;;;14.40;61.30;;;;;;6189756;23;19926;-89
2021/12/05 11:56:59;;;;;;;;;;;14.50;61.50;;;;;;6189215;23;20515;-88
2021/12/05 11:59:35;;;;;;;;;;;14.50;62.00;;;;;;6094735;23;19910;-90
2021/12/05 12:02:06;;;;;;;;;;;14.50;62.60;;;;;;6095064;23;19945;-94
2021/12/05 12:04:37;;;;;;;;;;;14.60;62.50;;;;;;6172995;23;19904;-93
2021/12/05 12:07:05;;;;;;;;;;;14.70;62.50;;;;;;6192632;23;19923;-93
2021/12/05 12:09:31;;;;;;;;;;;14.70;62.40;;;;;;6168220;23;19908;-94
2021/12/05 12:11:56;;;;;;;;;;;14.70;62.00;;;;;;6193575;23;19919;-92
2021/12/05 12:14:22;;;;;;;;;;;14.70;62.20;;;;;;6193092;23;19920;-92
2021/12/05 12:16:50;;;;;;;;;;;14.80;62.50;;;;;;6193623;23;19908;-93
2021/12/05 12:19:21;;;;;;;;;;;14.90;62.50;;;;;;6191981;23;19975;-93
2021/12/05 12:21:48;;;;;;;;;;;14.90;62.00;;;;;;6191921;23;19911;-93
2021/12/05 12:24:15;;;;;;;;;;;14.90;61.10;;;;;;6192354;23;20681;-93
2021/12/05 12:26:41;;;;;;;;;;;14.90;61.00;;;;;;6193607;23;19914;-95
2021/12/05 12:29:09;;;;;;;;;;;14.80;61.70;;;;;;6193189;23;19939;-93
2021/12/05 12:31:39;;;;;;;;;;;14.90;61.80;;;;;;6219399;23;20336;-93
2021/12/05 12:34:11;;;;;;;;;;;14.90;61.90;;;;;;6192493;23;19908;-94
2021/12/05 12:36:41;;;;;;;;;;;14.90;62.00;;;;;;6220016;23;20209;-93
2021/12/05 12:39:16;;;;;;;;;;;15.00;62.00;;;;;;6193025;23;19904;-92
2021/12/05 12:41:42;;;;;;;;;;;15.00;61.80;;;;;;6191922;23;19939;-92
2021/12/05 12:44:08;;;;;;;;;;;15.00;61.30;;;;;;6192041;23;19908;-94
2021/12/05 12:46:33;;;;;;;;;;;15.00;61.50;;;;;;6190768;23;20201;-93
2021/12/05 12:49:20;;;;;;;;;;;15.00;61.40;;;;;;6191931;23;19943;-93
2021/12/05 12:51:51;;;;;;;;;;;15.00;61.70;;;;;;6167503;23;20222;-93
2021/12/05 12:54:23;;;;;;;;;;;15.00;61.60;;;;;;6192173;23;19908;-93
2021/12/05 12:57:08;;;;;;;;;;;15.00;61.30;;;;;;6191515;23;20018;-93
2021/12/05 12:59:35;;;;;;;;;;;15.00;60.50;;;;;;6191722;23;20301;-93
2021/12/05 13:05:01;;;;;;;;;;;15.00;60.60;;;;;;6191855;23;19912;-93
2021/12/05 13:10:23;;;;;;;;;;;15.00;61.50;;;;;;6218269;23;19911;-92
2021/12/05 13:12:50;;;;;;;;;;;15.00;61.30;;;;;;6191366;23;20005;-92
2021/12/05 13:15:34;;;;;;;;;;;14.90;61.40;;;;;;6191657;23;20336;-93
2021/12/05 13:18:09;;;;;;;;;;;14.90;61.20;;;;;;6191685;23;19961;-92
2021/12/05 13:21:04;;;;;;;;;;;14.80;61.20;;;;;;6191230;23;19920;-93
2021/12/05 13:23:34;;;;;;;;;;;14.80;61.20;;;;;;6214223;23;19916;-93
2021/12/05 13:26:06;;;;;;;;;;;14.80;61.00;;;;;;6193810;23;19919;-93
2021/12/05 13:28:33;;;;;;;;;;;14.80;60.80;;;;;;6194612;23;19967;-93
2021/12/05 13:31:00;;;;;;;;;;;14.80;60.70;;;;;;6220721;23;19915;-92
2021/12/05 13:33:30;;;;;;;;;;;14.70;60.60;;;;;;6194618;23;19912;-94
2021/12/05 13:35:58;;;;;;;;;;;14.70;60.20;;;;;;6193910;23;19912;-91
2021/12/05 13:38:35;;;;;;;;;;;14.70;60.60;;;;;;6193809;23;19911;-93
2021/12/05 13:41:39;;;;;;;;;;;14.60;60.20;;;;;;6192832;23;19916;-93
2021/12/05 13:44:10;;;;;;;;;;;14.50;59.70;;;;;;6146094;23;19919;-93
2021/12/05 13:46:43;;;;;;;;;;;14.40;60.20;;;;;;6193157;23;19903;-92
2021/12/05 13:52:28;;;;;;;;;;;14.30;60.40;;;;;;6219768;23;19955;-92
2021/12/05 13:55:14;;;;;;;;;;;14.20;59.90;;;;;;6190881;23;19908;-93
2021/12/05 13:58:18;;;;;;;;;;;14.00;60.20;;;;;;6192027;23;19927;-92
2021/12/05 14:00:46;;;;;;;;;;;14.00;60.50;;;;;;6195318;23;19908;-91
2021/12/05 14:03:12;;;;;;;;;;;14.00;60.40;;;;;;6193393;23;19912;-93
2021/12/05 14:05:46;;;;;;;;;;;14.00;60.40;;;;;;6192824;23;19912;-92
2021/12/05 14:08:14;;;;;;;;;;;14.00;60.40;;;;;;6192490;23;20375;-91
2021/12/05 14:10:44;;;;;;;;;;;13.90;59.90;;;;;;6191317;23;19912;-91
2021/12/05 14:13:10;;;;;;;;;;;13.90;59.80;;;;;;6216192;23;19912;-92
2021/12/05 14:15:35;;;;;;;;;;;13.80;59.90;;;;;;6192203;23;19918;-93
2021/12/05 14:18:01;;;;;;;;;;;13.80;59.90;;;;;;6192687;23;19963;-92
2021/12/05 14:20:30;;;;;;;;;;;13.70;60.20;;;;;;6192156;23;19908;-93
2021/12/05 14:23:04;;;;;;;;;;;13.60;59.70;;;;;;6167123;23;19987;-93
2021/12/05 14:25:32;;;;;;;;;;;13.50;59.90;;;;;;6192259;23;19912;-93
2021/12/05 14:28:00;;;;;;;;;;;13.50;59.80;;;;;;6192668;23;20240;-93
2021/12/05 14:30:29;;;;;;;;;;;13.50;59.60;;;;;;6192994;23;19904;-93
2021/12/05 14:32:58;;;;;;;;;;;13.40;59.90;;;;;;6192645;23;19915;-94
2021/12/05 14:35:28;;;;;;;;;;;13.40;59.70;;;;;;6193984;23;19916;-93
2021/12/05 14:37:54;;;;;;;;;;;13.30;60.00;;;;;;6194976;23;19950;-94
2021/12/05 14:40:21;;;;;;;;;;;13.30;60.40;;;;;;6222353;23;20313;-93
2021/12/05 14:42:47;;;;;;;;;;;13.30;60.60;;;;;;6195370;23;19912;-94
2021/12/05 14:45:21;;;;;;;;;;;13.20;60.50;;;;;;6194421;23;20367;-96
2021/12/05 14:47:47;;;;;;;;;;;13.30;60.80;;;;;;6196731;23;19912;-95
2021/12/05 14:50:13;;;;;;;;;;;13.20;60.40;;;;;;6198895;23;19912;-93
2021/12/05 14:52:39;;;;;;;;;;;13.20;60.60;;;;;;6222079;23;19970;-93
2021/12/05 14:55:06;;;;;;;;;;;13.10;60.20;;;;;;6196987;23;20297;-94
2021/12/05 14:57:34;;;;;;;;;;;13.10;60.60;;;;;;6195560;23;19911;-93
2021/12/05 15:00:23;;;;;;;;;;;13.00;60.40;;;;;;6194167;23;19908;-94
2021/12/05 15:02:49;;;;;;;;;;;13.00;60.50;;;;;;6194143;23;19919;-92
2021/12/05 15:05:16;;;;;;;;;;;13.00;60.30;;;;;;6194932;23;19904;-92
2021/12/05 15:07:43;;;;;;;;;;;13.00;59.90;;;;;;6195352;23;19912;-93
2021/12/05 15:10:09;;;;;;;;;;;12.90;60.20;;;;;;6221547;23;19907;-94
2021/12/05 15:12:35;;;;;;;;;;;12.90;60.00;;;;;;6193893;23;19935;-94
2021/12/05 15:15:03;;;;;;;;;;;12.80;60.40;;;;;;6193411;23;19908;-94
2021/12/05 15:17:30;;;;;;;;;;;12.70;60.40;;;;;;6195599;23;19919;-93
2021/12/05 15:19:58;;;;;;;;;;;12.70;60.50;;;;;;6196383;23;19904;-94
2021/12/05 15:22:24;;;;;;;;;;;12.70;60.60;;;;;;6196643;23;19916;-92
2021/12/05 15:24:51;;;;;;;;;;;12.70;60.70;;;;;;6195527;23;19908;-92
2021/12/05 15:27:17;;;;;;;;;;;12.70;60.60;;;;;;6193069;23;19911;-93
2021/12/05 15:30:06;;;;;;;;;;;12.70;60.50;;;;;;6193659;23;20371;-91
2021/12/05 15:32:33;;;;;;;;;;;12.60;60.50;;;;;;6202620;23;19939;-91
2021/12/05 15:35:02;;;;;;;;;;;12.50;60.30;;;;;;6193770;23;19914;-92
2021/12/05 15:37:28;;;;;;;;;;;12.50;60.30;;;;;;6199939;23;19912;-91
2021/12/05 15:39:54;;;;;;;;;;;12.50;60.20;;;;;;6192673;23;20304;-92
2021/12/05 15:42:23;;;;;;;;;;;12.40;60.10;;;;;;6219460;23;19991;-93
2021/12/05 15:44:50;;;;;;;;;;;12.30;60.10;;;;;;6193361;23;19904;-92
2021/12/05 15:47:20;;;;;;;;;;;12.20;60.20;;;;;;6193749;23;20365;-93
2021/12/05 15:49:48;;;;;;;;;;;12.10;60.30;;;;;;6197834;23;19908;-94
2021/12/05 15:52:14;;;;;;;;;;;12.10;60.30;;;;;;6195236;23;19994;-90
2021/12/05 15:54:43;;;;;;;;;;;12.00;60.10;;;;;;6191994;23;19908;-92
2021/12/05 15:57:10;;;;;;;;;;;12.00;60.40;;;;;;6219965;23;19904;-91
2021/12/05 15:59:39;;;;;;;;;;;12.00;60.50;;;;;;6193609;23;19904;-92
2021/12/05 16:02:10;;;;;;;;;;;12.00;60.50;;;;;;6219990;23;19904;-93
2021/12/05 16:04:35;;;;;;;;;;;11.90;60.50;;;;;;6195110;23;19908;-90
2021/12/05 16:07:03;;;;;;;;;;;11.90;60.60;;;;;;6192599;23;19904;-93
2021/12/05 16:09:28;;;;;;;;;;;11.90;60.70;;;;;;6195225;23;19991;-93
2021/12/05 16:12:06;;;;;;;;;;;11.90;60.80;;;;;;6196016;23;19911;-91
2021/12/05 16:14:35;;;;;;;;;;;11.80;60.50;;;;;;6193732;23;19923;-91
2021/12/05 16:17:00;;;;;;;;;;;11.80;60.40;;;;;;6218475;23;19915;-89
2021/12/05 16:19:26;;;;;;;;;;;11.80;60.50;;;;;;6192389;23;19916;-91
2021/12/05 16:21:52;;;;;;;;;;;11.70;60.60;;;;;;6192392;23;19966;-91
2021/12/05 16:24:20;;;;;;;;;;;11.70;60.70;;;;;;6191152;23;19958;-91
2021/12/05 16:26:47;;;;;;;;;;;11.70;60.70;;;;;;6190338;23;19943;-91
2021/12/05 16:29:22;;;;;;;;;;;11.70;60.70;;;;;;6167078;23;19978;-92
2021/12/05 16:31:53;;;;;;;;;;;11.70;60.70;;;;;;6190349;23;19912;-91
2021/12/05 16:34:19;;;;;;;;;;;11.70;60.80;;;;;;6191044;23;20276;-90
2021/12/05 16:36:56;;;;;;;;;;;11.70;60.80;;;;;;6216494;23;19912;-91
2021/12/05 16:39:42;;;;;;;;;;;11.70;60.90;;;;;;6217926;23;20547;-91
2021/12/05 16:42:09;;;;;;;;;;;11.70;61.00;;;;;;6216201;23;19966;-90
2021/12/05 16:44:39;;;;;;;;;;;11.70;61.00;;;;;;6190056;23;19908;-91
2021/12/05 16:47:09;;;;;;;;;;;11.70;61.00;;;;;;6217351;23;19985;-91
2021/12/05 16:49:36;;;;;;;;;;;11.70;61.00;;;;;;6190160;23;19904;-91
2021/12/05 16:52:13;;;;;;;;;;;11.70;61.10;;;;;;6216494;23;20244;-91
2021/12/05 16:54:45;;;;;;;;;;;11.70;61.00;;;;;;6189987;23;19912;-87
2021/12/05 16:57:17;;;;;;;;;;;11.70;61.10;;;;;;6189119;23;19914;-91
2021/12/05 16:59:48;;;;;;;;;;;11.70;61.10;;;;;;6217179;23;19931;-89
2021/12/05 17:02:22;;;;;;;;;;;11.70;61.00;;;;;;6219260;23;19908;-88
2021/12/05 17:05:14;;;;;;;;;;;11.70;61.00;;;;;;6189731;23;19911;-90
2021/12/05 17:07:49;;;;;;;;;;;11.70;60.80;;;;;;6192071;23;19920;-89
2021/12/05 17:10:24;;;;;;;;;;;11.70;61.00;;;;;;6189984;23;19914;-89
2021/12/05 17:13:04;;;;;;;;;;;11.70;60.80;;;;;;6217416;23;20240;-90
2021/12/05 17:15:30;;;;;;;;;;;11.70;61.10;;;;;;6190634;23;19916;-92
2021/12/05 17:18:02;;;;;;;;;;;11.70;61.10;;;;;;6190442;23;19923;-91
2021/12/05 17:20:28;;;;;;;;;;;11.70;61.20;;;;;;6167050;23;19962;-90
2021/12/05 17:22:59;;;;;;;;;;;11.70;61.10;;;;;;6218400;23;19912;-91
2021/12/05 17:25:26;;;;;;;;;;;11.70;61.00;;;;;;6191672;23;19904;-91
2021/12/05 17:27:51;;;;;;;;;;;11.70;61.00;;;;;;6191016;23;19990;-91
2021/12/05 17:30:16;;;;;;;;;;;11.70;60.80;;;;;;6218183;23;20382;-90
2021/12/05 17:32:42;;;;;;;;;;;11.70;60.50;;;;;;6219154;23;20324;-91
2021/12/05 17:35:08;;;;;;;;;;;11.70;60.60;;;;;;6190925;23;19957;-90
2021/12/05 17:37:34;;;;;;;;;;;11.60;60.60;;;;;;6218694;23;19990;-92
2021/12/05 17:40:03;;;;;;;;;;;11.70;60.80;;;;;;6218146;23;19912;-91
2021/12/05 17:42:32;;;;;;;;;;;11.70;60.80;;;;;;6191279;23;19919;-91
2021/12/05 17:44:59;;;;;;;;;;;11.70;60.80;;;;;;6218246;23;20348;-91
2021/12/05 17:47:25;;;;;;;;;;;11.60;60.50;;;;;;6218640;23;19962;-90
2021/12/05 17:49:53;;;;;;;;;;;11.60;60.70;;;;;;6192622;23;19911;-91
2021/12/05 17:52:20;;;;;;;;;;;11.50;60.60;;;;;;6219534;23;19928;-91
2021/12/05 17:57:32;;;;;;;;;;;11.60;61.00;;;;;;6228520;23;19904;-91
2021/12/05 18:00:12;;;;;;;;;;;11.50;61.00;;;;;;6189850;23;19923;-87
2021/12/05 18:05:05;;;;;;;;;;;11.60;60.90;;;;;;6216690;23;19908;-88
2021/12/05 18:07:31;;;;;;;;;;;11.60;61.00;;;;;;6216456;23;19911;-87
2021/12/05 18:09:56;;;;;;;;;;;11.60;60.90;;;;;;6214673;23;19915;-87
2021/12/05 18:12:32;;;;;;;;;;;11.60;61.00;;;;;;6213966;23;20007;-87
2021/12/05 18:14:58;;;;;;;;;;;11.60;60.70;;;;;;6189397;23;20297;-87
2021/12/05 18:17:24;;;;;;;;;;;11.60;60.90;;;;;;6215764;23;19912;-87
2021/12/05 18:19:50;;;;;;;;;;;11.50;60.80;;;;;;6216537;23;19912;-87
2021/12/05 18:22:15;;;;;;;;;;;11.50;60.90;;;;;;6215446;23;19910;-87
2021/12/05 18:24:43;;;;;;;;;;;11.50;60.90;;;;;;6215340;23;19908;-88
2021/12/05 18:27:09;;;;;;;;;;;11.50;61.00;;;;;;6189683;23;19908;-87
2021/12/05 18:29:35;;;;;;;;;;;11.50;60.90;;;;;;6217606;23;19912;-87
2021/12/05 18:32:02;;;;;;;;;;;11.50;61.00;;;;;;6172921;23;19958;-87
2021/12/05 18:34:29;;;;;;;;;;;11.50;61.00;;;;;;6173908;23;19993;-86
2021/12/05 18:37:00;;;;;;;;;;;11.50;61.00;;;;;;6222906;23;19943;-86
2021/12/05 18:39:35;;;;;;;;;;;11.50;60.90;;;;;;6219004;23;20317;-87
2021/12/05 18:42:05;;;;;;;;;;;11.50;61.00;;;;;;6228790;23;20485;-86
2021/12/05 18:44:34;;;;;;;;;;;11.50;61.10;;;;;;6212903;23;19920;-90
2021/12/05 18:47:04;;;;;;;;;;;11.50;61.10;;;;;;6241136;23;19908;-90
2021/12/05 18:49:30;;;;;;;;;;;11.50;61.10;;;;;;6214616;23;20319;-91
2021/12/05 18:52:12;;;;;;;;;;;11.50;61.10;;;;;;6238663;23;19912;-90
2021/12/05 18:54:47;;;;;;;;;;;11.50;61.00;;;;;;6215261;23;19900;-91
2021/12/05 18:57:15;;;;;;;;;;;11.50;61.00;;;;;;6210827;23;19904;-91
2021/12/05 18:59:48;;;;;;;;;;;11.50;61.00;;;;;;6187062;23;19964;-91
2021/12/05 19:05:30;;;;;;;;;;;11.50;60.60;;;;;;6224118;23;19975;-90
2021/12/05 19:13:15;;;;;;;;;;;11.40;60.80;;;;;;6220277;23;20390;-91
2021/12/05 19:15:41;;;;;;;;;;;11.40;60.90;;;;;;6193021;23;19920;-91
2021/12/05 19:18:09;;;;;;;;;;;11.30;60.90;;;;;;6220104;23;19939;-90
2021/12/05 19:20:35;;;;;;;;;;;11.40;60.90;;;;;;6193353;23;19938;-91
2021/12/05 19:23:02;;;;;;;;;;;11.40;60.90;;;;;;6193368;23;19908;-91
2021/12/05 19:25:30;;;;;;;;;;;11.40;60.90;;;;;;6194852;23;19995;-90
2021/12/05 19:27:57;;;;;;;;;;;11.40;60.90;;;;;;6220787;23;20305;-91
2021/12/05 19:30:33;;;;;;;;;;;11.40;60.70;;;;;;6193255;23;19910;-91
2021/12/05 19:33:03;;;;;;;;;;;11.40;60.70;;;;;;6192958;23;19916;-92
2021/12/05 19:35:29;;;;;;;;;;;11.30;60.70;;;;;;6174576;23;20344;-90
2021/12/05 19:38:02;;;;;;;;;;;11.40;60.70;;;;;;6221115;23;19916;-92
2021/12/05 19:40:30;;;;;;;;;;;11.30;60.80;;;;;;6220103;23;19904;-92
2021/12/05 19:42:57;;;;;;;;;;;11.40;60.70;;;;;;6220639;23;19919;-92
2021/12/05 19:45:25;;;;;;;;;;;11.40;60.70;;;;;;6220640;23;19908;-91
2021/12/05 19:47:51;;;;;;;;;;;11.40;60.70;;;;;;6220140;23;19915;-93
2021/12/05 19:50:18;;;;;;;;;;;11.40;60.70;;;;;;6220890;23;19911;-91
2021/12/05 19:52:43;;;;;;;;;;;11.30;60.70;;;;;;6218407;23;19920;-91